createdAt,value
2018-02-21T00:00:40.394Z,1022.12
2018-02-21T00:01:40.393Z,1022.17
2018-02-21T00:02:40.386Z,1022.16
2018-02-21T00:03:40.563Z,1022.2
2018-02-21T00:04:40.395Z,1022.19
2018-02-21T00:05:40.380Z,1022.25
2018-02-21T00:06:40.396Z,1022.27
2018-02-21T00:07:40.389Z,1022.25
2018-02-21T00:08:40.390Z,1022.25
2018-02-21T00:09:40.386Z,1022.27
2018-02-21T00:10:40.404Z,1022.28
2018-02-21T00:11:40.390Z,1022.25
2018-02-21T00:12:40.391Z,1022.24
2018-02-21T00:13:40.380Z,1022.25
2018-02-21T00:14:40.382Z,1022.23
2018-02-21T00:15:40.376Z,1022.25
2018-02-21T00:16:40.404Z,1022.24
2018-02-21T00:17:40.397Z,1022.27
2018-02-21T00:18:40.380Z,1022.28
2018-02-21T00:19:40.391Z,1022.26
2018-02-21T00:20:40.396Z,1022.32
2018-02-21T00:21:40.394Z,1022.27
2018-02-21T00:22:40.383Z,1022.27
2018-02-21T00:23:40.386Z,1022.29
2018-02-21T00:24:40.432Z,1022.26
2018-02-21T00:25:40.379Z,1022.27
2018-02-21T00:26:40.380Z,1022.27
2018-02-21T00:27:40.376Z,1022.27
2018-02-21T00:28:40.376Z,1022.3
2018-02-21T00:29:40.376Z,1022.3
2018-02-21T00:30:40.379Z,1022.35
2018-02-21T00:31:40.388Z,1022.37
2018-02-21T00:32:40.376Z,1022.37
2018-02-21T00:33:40.379Z,1022.37
2018-02-21T00:34:40.385Z,1022.39
2018-02-21T00:35:40.384Z,1022.38
2018-02-21T00:36:40.383Z,1022.4
2018-02-21T00:37:40.390Z,1022.44
2018-02-21T00:38:40.378Z,1022.43
2018-02-21T00:39:40.368Z,1022.42
2018-02-21T00:40:40.374Z,1022.47
2018-02-21T00:41:40.388Z,1022.45
2018-02-21T00:42:40.375Z,1022.46
2018-02-21T00:43:40.408Z,1022.44
2018-02-21T00:44:40.378Z,1022.45
2018-02-21T00:45:40.471Z,1022.46
2018-02-21T00:46:40.374Z,1022.48
2018-02-21T00:47:40.414Z,1022.44
2018-02-21T00:48:40.367Z,1022.47
2018-02-21T00:49:40.400Z,1022.47
2018-02-21T00:50:40.373Z,1022.49
2018-02-21T00:51:40.370Z,1022.54
2018-02-21T00:52:40.428Z,1022.55
2018-02-21T00:53:40.377Z,1022.55
2018-02-21T00:54:40.377Z,1022.59
2018-02-21T00:55:40.392Z,1022.59
2018-02-21T00:56:40.362Z,1022.6
2018-02-21T00:57:40.366Z,1022.63
2018-02-21T00:58:40.365Z,1022.6
2018-02-21T00:59:40.380Z,1022.66
2018-02-21T01:00:40.375Z,1022.64
2018-02-21T01:01:40.366Z,1022.66
2018-02-21T01:02:40.356Z,1022.7
2018-02-21T01:03:40.372Z,1022.67
2018-02-21T01:04:40.377Z,1022.64
2018-02-21T01:05:40.372Z,1022.64
2018-02-21T01:06:40.361Z,1022.69
2018-02-21T01:07:40.362Z,1022.71
2018-02-21T01:08:40.396Z,1022.72
2018-02-21T01:09:40.358Z,1022.72
2018-02-21T01:10:40.360Z,1022.72
2018-02-21T01:11:40.363Z,1022.69
2018-02-21T01:12:40.355Z,1022.73
2018-02-21T01:13:40.369Z,1022.71
2018-02-21T01:14:40.369Z,1022.75
2018-02-21T01:15:40.360Z,1022.7
2018-02-21T01:16:40.372Z,1022.72
2018-02-21T01:17:40.361Z,1022.64
2018-02-21T01:18:40.368Z,1022.59
2018-02-21T01:19:40.360Z,1022.6
2018-02-21T01:20:40.356Z,1022.67
2018-02-21T01:21:40.366Z,1022.61
2018-02-21T01:22:40.356Z,1022.66
2018-02-21T01:23:40.351Z,1022.64
2018-02-21T01:24:40.367Z,1022.68
2018-02-21T01:25:40.387Z,1022.71
2018-02-21T01:26:40.357Z,1022.72
2018-02-21T01:27:40.407Z,1022.72
2018-02-21T01:28:40.361Z,1022.69
2018-02-21T01:29:40.353Z,1022.7
2018-02-21T01:30:40.363Z,1022.71
2018-02-21T01:31:40.355Z,1022.73
2018-02-21T01:32:40.358Z,1022.7
2018-02-21T01:33:40.355Z,1022.67
2018-02-21T01:34:40.358Z,1022.69
2018-02-21T01:35:40.351Z,1022.64
2018-02-21T01:36:40.356Z,1022.62
2018-02-21T01:37:40.358Z,1022.59
2018-02-21T01:38:40.342Z,1022.62
2018-02-21T01:39:40.353Z,1022.57
2018-02-21T01:40:40.361Z,1022.61
2018-02-21T01:41:40.341Z,1022.58
2018-02-21T01:42:40.359Z,1022.59
2018-02-21T01:43:40.352Z,1022.61
2018-02-21T01:44:40.348Z,1022.62
2018-02-21T01:45:40.351Z,1022.61
2018-02-21T01:46:40.357Z,1022.65
2018-02-21T01:47:40.371Z,1022.66
2018-02-21T01:48:40.370Z,1022.63
2018-02-21T01:49:40.347Z,1022.63
2018-02-21T01:50:40.351Z,1022.62
2018-02-21T01:51:40.371Z,1022.6
2018-02-21T01:52:40.363Z,1022.59
2018-02-21T01:53:40.373Z,1022.54
2018-02-21T01:54:40.354Z,1022.48
2018-02-21T01:55:40.329Z,1022.47
2018-02-21T01:56:40.353Z,1022.5
2018-02-21T01:57:40.351Z,1022.55
2018-02-21T01:58:40.364Z,1022.51
2018-02-21T01:59:40.352Z,1022.55
2018-02-21T02:00:40.346Z,1022.55
2018-02-21T02:01:40.340Z,1022.58
2018-02-21T02:02:40.352Z,1022.58
2018-02-21T02:03:40.350Z,1022.58
2018-02-21T02:04:40.334Z,1022.61
2018-02-21T02:05:40.342Z,1022.61
2018-02-21T02:06:40.366Z,1022.61
2018-02-21T02:07:40.359Z,1022.64
2018-02-21T02:08:40.353Z,1022.65
2018-02-21T02:09:40.364Z,1022.65
2018-02-21T02:10:40.336Z,1022.7
2018-02-21T02:11:40.340Z,1022.75
2018-02-21T02:12:40.336Z,1022.74
2018-02-21T02:13:40.345Z,1022.72
2018-02-21T02:14:40.354Z,1022.74
2018-02-21T02:15:40.351Z,1022.78
2018-02-21T02:16:40.353Z,1022.79
2018-02-21T02:17:40.345Z,1022.84
2018-02-21T02:18:40.344Z,1022.86
2018-02-21T02:19:40.367Z,1022.87
2018-02-21T02:20:40.342Z,1022.92
2018-02-21T02:21:40.355Z,1022.91
2018-02-21T02:22:40.334Z,1022.89
2018-02-21T02:23:40.340Z,1022.91
2018-02-21T02:24:40.336Z,1022.92
2018-02-21T02:25:40.363Z,1022.96
2018-02-21T02:26:40.335Z,1023.03
2018-02-21T02:27:40.337Z,1023.02
2018-02-21T02:28:40.349Z,1023.02
2018-02-21T02:29:40.337Z,1022.99
2018-02-21T02:30:40.377Z,1023.05
2018-02-21T02:31:40.349Z,1023.07
2018-02-21T02:32:40.344Z,1023.11
2018-02-21T02:33:40.331Z,1023.07
2018-02-21T02:34:40.351Z,1023.15
2018-02-21T02:35:40.333Z,1023.11
2018-02-21T02:36:40.358Z,1023.1
2018-02-21T02:37:40.330Z,1023.11
2018-02-21T02:38:40.338Z,1023.05
2018-02-21T02:39:40.351Z,1023.07
2018-02-21T02:40:40.323Z,1023.09
2018-02-21T02:41:40.355Z,1023.08
2018-02-21T02:42:40.353Z,1023.13
2018-02-21T02:43:40.314Z,1023.12
2018-02-21T02:44:40.324Z,1023.13
2018-02-21T02:45:40.345Z,1023.09
2018-02-21T02:46:40.445Z,1023.1
2018-02-21T02:47:40.343Z,1023.07
2018-02-21T02:48:40.332Z,1023.13
2018-02-21T02:49:40.342Z,1023.09
2018-02-21T02:50:40.320Z,1023.11
2018-02-21T02:51:40.348Z,1023.13
2018-02-21T02:52:40.326Z,1023.12
2018-02-21T02:53:40.320Z,1023.11
2018-02-21T02:54:40.342Z,1023.15
2018-02-21T02:55:40.342Z,1023.12
2018-02-21T02:56:40.336Z,1023.11
2018-02-21T02:57:40.330Z,1023.14
2018-02-21T02:58:40.326Z,1023.15
2018-02-21T02:59:40.341Z,1023.13
2018-02-21T03:00:40.340Z,1023.14
2018-02-21T03:01:40.332Z,1023.14
2018-02-21T03:02:40.339Z,1023.07
2018-02-21T03:03:40.329Z,1023.12
2018-02-21T03:04:40.318Z,1023.12
2018-02-21T03:05:40.336Z,1023.11
2018-02-21T03:06:40.329Z,1023.13
2018-02-21T03:07:40.350Z,1023.11
2018-02-21T03:08:40.321Z,1023.07
2018-02-21T03:09:40.321Z,1023.05
2018-02-21T03:10:40.326Z,1023.06
2018-02-21T03:11:40.315Z,1023.08
2018-02-21T03:12:40.425Z,1023.04
2018-02-21T03:13:40.311Z,1022.99
2018-02-21T03:14:40.324Z,1022.95
2018-02-21T03:15:40.319Z,1022.97
2018-02-21T03:16:40.319Z,1022.98
2018-02-21T03:17:40.325Z,1023
2018-02-21T03:18:40.322Z,1022.95
2018-02-21T03:19:40.322Z,1022.98
2018-02-21T03:20:40.418Z,1022.98
2018-02-21T03:21:40.320Z,1022.97
2018-02-21T03:22:40.498Z,1022.99
2018-02-21T03:23:40.329Z,1023
2018-02-21T03:24:40.346Z,1022.98
2018-02-21T03:25:40.324Z,1022.99
2018-02-21T03:26:40.360Z,1023.02
2018-02-21T03:27:40.324Z,1023.03
2018-02-21T03:28:40.314Z,1023.04
2018-02-21T03:29:40.325Z,1023.06
2018-02-21T03:30:40.315Z,1023.07
2018-02-21T03:31:40.308Z,1023.1
2018-02-21T03:32:40.321Z,1023.09
2018-02-21T03:33:40.311Z,1023.13
2018-02-21T03:34:40.331Z,1023.12
2018-02-21T03:35:40.321Z,1023.11
2018-02-21T03:36:40.308Z,1023.15
2018-02-21T03:37:40.307Z,1023.14
2018-02-21T03:38:40.311Z,1023.13
2018-02-21T03:39:40.316Z,1023.11
2018-02-21T03:40:40.316Z,1023.09
2018-02-21T03:41:40.304Z,1023.11
2018-02-21T03:42:40.336Z,1023.13
2018-02-21T03:43:40.312Z,1023.1
2018-02-21T03:44:40.306Z,1023.15
2018-02-21T03:45:40.320Z,1023.11
2018-02-21T03:46:40.313Z,1023.11
2018-02-21T03:47:40.307Z,1023.1
2018-02-21T03:48:40.313Z,1023.14
2018-02-21T03:49:40.307Z,1023.11
2018-02-21T03:50:40.322Z,1023.13
2018-02-21T03:51:40.329Z,1023.08
2018-02-21T03:52:40.304Z,1023.13
2018-02-21T03:53:40.310Z,1023.15
2018-02-21T03:54:40.303Z,1023.15
2018-02-21T03:55:40.322Z,1023.15
2018-02-21T03:56:40.294Z,1023.16
2018-02-21T03:57:40.296Z,1023.16
2018-02-21T03:58:40.304Z,1023.13
2018-02-21T03:59:40.307Z,1023.19
2018-02-21T04:00:40.301Z,1023.16
2018-02-21T04:01:40.302Z,1023.14
2018-02-21T04:02:40.294Z,1023.12
2018-02-21T04:03:40.303Z,1023.15
2018-02-21T04:04:40.335Z,1023.15
2018-02-21T04:05:40.299Z,1023.15
2018-02-21T04:06:40.310Z,1023.1
2018-02-21T04:07:40.293Z,1023.16
2018-02-21T04:08:40.309Z,1023.09
2018-02-21T04:09:40.564Z,1023.09
2018-02-21T04:10:40.297Z,1023.11
2018-02-21T04:11:40.293Z,1023.09
2018-02-21T04:12:40.314Z,1023.09
2018-02-21T04:13:40.303Z,1023.1
2018-02-21T04:14:40.365Z,1023.11
2018-02-21T04:15:40.316Z,1023.11
2018-02-21T04:16:40.307Z,1023.13
2018-02-21T04:17:40.306Z,1023.18
2018-02-21T04:18:40.300Z,1023.18
2018-02-21T04:19:40.317Z,1023.16
2018-02-21T04:20:40.305Z,1023.18
2018-02-21T04:21:40.289Z,1023.23
2018-02-21T04:22:40.296Z,1023.24
2018-02-21T04:23:40.282Z,1023.23
2018-02-21T04:24:40.320Z,1023.29
2018-02-21T04:25:40.321Z,1023.3
2018-02-21T04:26:40.284Z,1023.34
2018-02-21T04:27:40.291Z,1023.33
2018-02-21T04:28:40.290Z,1023.33
2018-02-21T04:29:40.329Z,1023.32
2018-02-21T04:30:40.296Z,1023.35
2018-02-21T04:31:40.286Z,1023.32
2018-02-21T04:32:40.310Z,1023.34
2018-02-21T04:33:40.285Z,1023.35
2018-02-21T04:34:40.577Z,1023.35
2018-02-21T04:35:40.317Z,1023.35
2018-02-21T04:36:40.294Z,1023.36
2018-02-21T04:37:40.289Z,1023.35
2018-02-21T04:38:40.294Z,1023.36
2018-02-21T04:39:40.299Z,1023.37
2018-02-21T04:40:40.313Z,1023.4
2018-02-21T04:41:40.293Z,1023.4
2018-02-21T04:42:40.277Z,1023.4
2018-02-21T04:43:40.298Z,1023.42
2018-02-21T04:44:40.305Z,1023.44
2018-02-21T04:45:40.308Z,1023.45
2018-02-21T04:46:40.274Z,1023.46
2018-02-21T04:47:40.375Z,1023.49
2018-02-21T04:48:40.285Z,1023.48
2018-02-21T04:49:40.286Z,1023.51
2018-02-21T04:50:40.311Z,1023.51
2018-02-21T04:51:40.283Z,1023.51
2018-02-21T04:52:40.310Z,1023.52
2018-02-21T04:53:40.291Z,1023.55
2018-02-21T04:54:40.287Z,1023.5
2018-02-21T04:55:40.301Z,1023.53
2018-02-21T04:56:40.285Z,1023.55
2018-02-21T04:57:40.287Z,1023.53
2018-02-21T04:58:40.291Z,1023.53
2018-02-21T04:59:40.304Z,1023.56
2018-02-21T05:00:40.175Z,1023.57
2018-02-21T05:01:40.288Z,1023.55
2018-02-21T05:02:40.285Z,1023.59
2018-02-21T05:03:40.274Z,1023.57
2018-02-21T05:04:40.283Z,1023.58
2018-02-21T05:05:40.319Z,1023.54
2018-02-21T05:06:40.266Z,1023.57
2018-02-21T05:07:40.280Z,1023.57
2018-02-21T05:08:40.298Z,1023.52
2018-02-21T05:09:40.297Z,1023.56
2018-02-21T05:10:40.304Z,1023.57
2018-02-21T05:11:40.281Z,1023.54
2018-02-21T05:12:40.280Z,1023.56
2018-02-21T05:13:40.277Z,1023.56
2018-02-21T05:14:40.269Z,1023.53
2018-02-21T05:15:40.282Z,1023.5
2018-02-21T05:16:40.288Z,1023.55
2018-02-21T05:17:40.273Z,1023.52
2018-02-21T05:18:40.276Z,1023.49
2018-02-21T05:19:40.288Z,1023.5
2018-02-21T05:20:40.270Z,1023.5
2018-02-21T05:21:40.280Z,1023.47
2018-02-21T05:22:40.274Z,1023.47
2018-02-21T05:23:40.276Z,1023.47
2018-02-21T05:24:40.278Z,1023.48
2018-02-21T05:25:40.277Z,1023.46
2018-02-21T05:26:40.286Z,1023.43
2018-02-21T05:27:40.278Z,1023.46
2018-02-21T05:28:40.271Z,1023.37
2018-02-21T05:29:40.272Z,1023.37
2018-02-21T05:30:40.294Z,1023.32
2018-02-21T05:31:40.268Z,1023.32
2018-02-21T05:32:40.278Z,1023.29
2018-02-21T05:33:40.264Z,1023.29
2018-02-21T05:34:40.283Z,1023.19
2018-02-21T05:35:40.285Z,1023.21
2018-02-21T05:36:40.277Z,1023.2
2018-02-21T05:37:40.272Z,1023.21
2018-02-21T05:38:40.279Z,1023.17
2018-02-21T05:39:40.271Z,1023.16
2018-02-21T05:40:40.288Z,1023.13
2018-02-21T05:41:40.275Z,1023.16
2018-02-21T05:42:40.278Z,1023.14
2018-02-21T05:43:40.267Z,1023.17
2018-02-21T05:44:40.260Z,1023.16
2018-02-21T05:45:40.277Z,1023.15
2018-02-21T05:46:40.269Z,1023.15
2018-02-21T05:47:40.268Z,1023.15
2018-02-21T05:48:40.307Z,1023.17
2018-02-21T05:49:40.271Z,1023.18
2018-02-21T05:50:40.262Z,1023.22
2018-02-21T05:51:40.267Z,1023.18
2018-02-21T05:52:40.289Z,1023.21
2018-02-21T05:53:40.268Z,1023.19
2018-02-21T05:54:40.258Z,1023.19
2018-02-21T05:55:40.252Z,1023.22
2018-02-21T05:56:40.269Z,1023.18
2018-02-21T05:57:40.262Z,1023.21
2018-02-21T05:58:40.266Z,1023.23
2018-02-21T05:59:40.253Z,1023.21
2018-02-21T06:00:40.287Z,1023.21
2018-02-21T06:01:40.282Z,1023.2
2018-02-21T06:02:40.264Z,1023.22
2018-02-21T06:03:40.285Z,1023.15
2018-02-21T06:04:40.280Z,1023.21
2018-02-21T06:05:40.276Z,1023.22
2018-02-21T06:06:40.276Z,1023.22
2018-02-21T06:07:40.300Z,1023.23
2018-02-21T06:08:40.296Z,1023.23
2018-02-21T06:09:40.280Z,1023.22
2018-02-21T06:10:40.283Z,1023.25
2018-02-21T06:11:40.275Z,1023.32
2018-02-21T06:12:40.317Z,1023.32
2018-02-21T06:13:40.259Z,1023.3
2018-02-21T06:14:40.286Z,1023.29
2018-02-21T06:15:40.276Z,1023.37
2018-02-21T06:16:40.297Z,1023.36
2018-02-21T06:17:40.568Z,1023.37
2018-02-21T06:18:40.264Z,1023.38
2018-02-21T06:19:40.271Z,1023.4
2018-02-21T06:20:40.253Z,1023.4
2018-02-21T06:21:40.272Z,1023.4
2018-02-21T06:22:40.286Z,1023.42
2018-02-21T06:23:40.262Z,1023.42
2018-02-21T06:24:40.269Z,1023.41
2018-02-21T06:25:40.278Z,1023.41
2018-02-21T06:26:40.254Z,1023.37
2018-02-21T06:27:40.556Z,1023.36
2018-02-21T06:28:40.264Z,1023.34
2018-02-21T06:29:40.369Z,1023.31
2018-02-21T06:30:40.278Z,1023.31
2018-02-21T06:31:40.240Z,1023.29
2018-02-21T06:32:40.293Z,1023.3
2018-02-21T06:33:40.270Z,1023.29
2018-02-21T06:34:40.246Z,1023.34
2018-02-21T06:35:40.271Z,1023.28
2018-02-21T06:36:40.255Z,1023.31
2018-02-21T06:37:40.367Z,1023.26
2018-02-21T06:38:40.265Z,1023.3
2018-02-21T06:39:40.251Z,1023.29
2018-02-21T06:40:40.242Z,1023.3
2018-02-21T06:41:40.247Z,1023.29
2018-02-21T06:42:40.276Z,1023.29
2018-02-21T06:43:40.248Z,1023.27
2018-02-21T06:44:40.256Z,1023.29
2018-02-21T06:45:40.365Z,1023.3
2018-02-21T06:46:40.261Z,1023.3
2018-02-21T06:47:40.271Z,1023.31
2018-02-21T06:48:40.356Z,1023.3
2018-02-21T06:49:40.251Z,1023.31
2018-02-21T06:50:40.247Z,1023.3
2018-02-21T06:51:40.271Z,1023.31
2018-02-21T06:52:40.266Z,1023.33
2018-02-21T06:53:40.262Z,1023.3
2018-02-21T06:54:40.365Z,1023.32
2018-02-21T06:55:40.263Z,1023.36
2018-02-21T06:56:40.261Z,1023.35
2018-02-21T06:57:40.282Z,1023.3
2018-02-21T06:58:40.240Z,1023.33
2018-02-21T06:59:40.238Z,1023.31
2018-02-21T07:00:40.244Z,1023.28
2018-02-21T07:01:40.237Z,1023.29
2018-02-21T07:02:40.304Z,1023.28
2018-02-21T07:03:40.258Z,1023.27
2018-02-21T07:04:40.238Z,1023.27
2018-02-21T07:05:40.239Z,1023.29
2018-02-21T07:06:40.239Z,1023.28
2018-02-21T07:07:40.260Z,1023.28
2018-02-21T07:08:40.240Z,1023.3
2018-02-21T07:09:40.226Z,1023.34
2018-02-21T07:10:40.262Z,1023.29
2018-02-21T07:11:40.240Z,1023.28
2018-02-21T07:12:40.241Z,1023.28
2018-02-21T07:13:40.236Z,1023.31
2018-02-21T07:14:40.243Z,1023.32
2018-02-21T07:15:40.379Z,1023.31
2018-02-21T07:16:40.237Z,1023.29
2018-02-21T07:17:40.258Z,1023.3
2018-02-21T07:18:40.230Z,1023.28
2018-02-21T07:19:40.247Z,1023.29
2018-02-21T07:20:40.349Z,1023.29
2018-02-21T07:21:40.260Z,1023.3
2018-02-21T07:22:40.235Z,1023.35
2018-02-21T07:23:40.255Z,1023.3
2018-02-21T07:24:40.236Z,1023.3
2018-02-21T07:25:40.251Z,1023.32
2018-02-21T07:26:40.223Z,1023.31
2018-02-21T07:27:40.229Z,1023.27
2018-02-21T07:28:40.504Z,1023.33
2018-02-21T07:29:40.227Z,1023.34
2018-02-21T07:30:40.236Z,1023.3
2018-02-21T07:31:40.239Z,1023.34
2018-02-21T07:32:40.223Z,1023.36
2018-02-21T07:33:40.501Z,1023.36
2018-02-21T07:34:40.226Z,1023.34
2018-02-21T07:35:40.238Z,1023.34
2018-02-21T07:36:40.248Z,1023.31
2018-02-21T07:37:40.233Z,1023.3
2018-02-21T07:38:40.253Z,1023.3
2018-02-21T07:39:40.282Z,1023.31
2018-02-21T07:40:40.225Z,1023.31
2018-02-21T07:41:40.236Z,1023.31
2018-02-21T07:42:40.227Z,1023.33
2018-02-21T07:43:40.254Z,1023.28
2018-02-21T07:44:40.234Z,1023.34
2018-02-21T07:45:40.227Z,1023.37
2018-02-21T07:46:40.215Z,1023.36
2018-02-21T07:47:40.239Z,1023.35
2018-02-21T07:48:40.230Z,1023.4
2018-02-21T07:49:40.266Z,1023.38
2018-02-21T07:50:40.224Z,1023.43
2018-02-21T07:51:40.225Z,1023.43
2018-02-21T07:52:40.221Z,1023.46
2018-02-21T07:53:40.223Z,1023.44
2018-02-21T07:54:40.246Z,1023.48
2018-02-21T07:55:40.229Z,1023.48
2018-02-21T07:56:40.235Z,1023.45
2018-02-21T07:57:40.227Z,1023.45
2018-02-21T07:58:40.224Z,1023.47
2018-02-21T07:59:40.248Z,1023.45
2018-02-21T08:00:40.226Z,1023.43
2018-02-21T08:01:40.211Z,1023.4
2018-02-21T08:02:40.229Z,1023.4
2018-02-21T08:03:40.209Z,1023.33
2018-02-21T08:04:40.244Z,1023.3
2018-02-21T08:05:40.218Z,1023.34
2018-02-21T08:06:40.227Z,1023.36
2018-02-21T08:07:40.216Z,1023.34
2018-02-21T08:08:40.220Z,1023.36
2018-02-21T08:09:40.267Z,1023.41
2018-02-21T08:10:40.232Z,1023.4
2018-02-21T08:11:40.212Z,1023.39
2018-02-21T08:12:40.230Z,1023.4
2018-02-21T08:13:40.235Z,1023.44
2018-02-21T08:14:40.235Z,1023.47
2018-02-21T08:15:40.220Z,1023.47
2018-02-21T08:16:40.215Z,1023.47
2018-02-21T08:17:40.211Z,1023.48
2018-02-21T08:18:40.196Z,1023.5
2018-02-21T08:19:40.213Z,1023.48
2018-02-21T08:20:40.231Z,1023.51
2018-02-21T08:21:40.222Z,1023.5
2018-02-21T08:22:40.226Z,1023.51
2018-02-21T08:23:40.253Z,1023.5
2018-02-21T08:24:40.206Z,1023.51
2018-02-21T08:25:40.261Z,1023.57
2018-02-21T08:26:40.209Z,1023.55
2018-02-21T08:27:40.200Z,1023.59
2018-02-21T08:28:40.218Z,1023.61
2018-02-21T08:29:40.205Z,1023.62
2018-02-21T08:30:40.253Z,1023.68
2018-02-21T08:31:40.244Z,1023.7
2018-02-21T08:32:40.222Z,1023.72
2018-02-21T08:33:40.201Z,1023.72
2018-02-21T08:34:40.364Z,1023.68
2018-02-21T08:35:40.226Z,1023.75
2018-02-21T08:36:40.216Z,1023.73
2018-02-21T08:37:40.231Z,1023.76
2018-02-21T08:38:40.216Z,1023.78
2018-02-21T08:39:40.226Z,1023.79
2018-02-21T08:40:40.361Z,1023.78
2018-02-21T08:41:40.210Z,1023.8
2018-02-21T08:42:40.221Z,1023.75
2018-02-21T08:43:40.202Z,1023.79
2018-02-21T08:44:40.252Z,1023.77
2018-02-21T08:45:40.206Z,1023.83
2018-02-21T08:46:40.187Z,1023.81
2018-02-21T08:47:40.201Z,1023.79
2018-02-21T08:48:40.199Z,1023.8
2018-02-21T08:49:40.296Z,1023.78
2018-02-21T08:50:40.212Z,1023.83
2018-02-21T08:51:40.194Z,1023.78
2018-02-21T08:52:40.204Z,1023.8
2018-02-21T08:53:40.209Z,1023.82
2018-02-21T08:54:40.192Z,1023.82
2018-02-21T08:55:40.206Z,1023.83
2018-02-21T08:56:40.197Z,1023.81
2018-02-21T08:57:40.240Z,1023.82
2018-02-21T08:58:40.206Z,1023.77
2018-02-21T08:59:40.207Z,1023.79
2018-02-21T09:00:40.195Z,1023.77
2018-02-21T09:01:40.196Z,1023.79
2018-02-21T09:02:40.194Z,1023.78
2018-02-21T09:03:40.187Z,1023.76
2018-02-21T09:04:40.201Z,1023.77
2018-02-21T09:05:40.195Z,1023.8
2018-02-21T09:06:40.188Z,1023.83
2018-02-21T09:07:40.328Z,1023.87
2018-02-21T09:08:40.193Z,1023.88
2018-02-21T09:09:40.191Z,1023.87
2018-02-21T09:10:40.188Z,1023.89
2018-02-21T09:11:40.197Z,1023.87
2018-02-21T09:12:40.220Z,1023.87
2018-02-21T09:13:40.189Z,1023.85
2018-02-21T09:14:40.199Z,1023.85
2018-02-21T09:15:40.185Z,1023.87
2018-02-21T09:16:40.537Z,1023.87
2018-02-21T09:17:40.192Z,1023.9
2018-02-21T09:18:40.214Z,1023.9
2018-02-21T09:19:40.196Z,1023.95
2018-02-21T09:20:40.194Z,1023.9
2018-02-21T09:21:40.191Z,1023.91
2018-02-21T09:22:40.194Z,1023.9
2018-02-21T09:23:40.196Z,1023.88
2018-02-21T09:24:40.190Z,1023.89
2018-02-21T09:25:40.205Z,1023.89
2018-02-21T09:26:40.186Z,1023.9
2018-02-21T09:27:40.197Z,1023.9
2018-02-21T09:28:40.228Z,1023.91
2018-02-21T09:29:40.196Z,1023.88
2018-02-21T09:30:40.180Z,1023.89
2018-02-21T09:31:40.187Z,1023.96
2018-02-21T09:32:40.225Z,1023.98
2018-02-21T09:33:40.190Z,1023.99
2018-02-21T09:34:40.187Z,1023.97
2018-02-21T09:35:40.196Z,1023.99
2018-02-21T09:36:40.188Z,1024.03
2018-02-21T09:37:40.194Z,1024.01
2018-02-21T09:38:40.230Z,1024.01
2018-02-21T09:39:40.197Z,1024.02
2018-02-21T09:40:40.187Z,1023.98
2018-02-21T09:41:40.185Z,1023.97
2018-02-21T09:42:40.182Z,1023.95
2018-02-21T09:43:40.187Z,1023.96
2018-02-21T09:44:40.188Z,1023.95
2018-02-21T09:45:40.192Z,1023.93
2018-02-21T09:46:40.183Z,1023.95
2018-02-21T09:47:40.240Z,1023.93
2018-02-21T09:48:40.194Z,1023.91
2018-02-21T09:49:40.175Z,1023.9
2018-02-21T09:50:40.188Z,1023.9
2018-02-21T09:51:40.188Z,1023.88
2018-02-21T09:52:40.175Z,1023.88
2018-02-21T09:53:40.179Z,1023.88
2018-02-21T09:54:40.195Z,1023.88
2018-02-21T09:55:40.175Z,1023.86
2018-02-21T09:56:40.196Z,1023.85
2018-02-21T09:57:40.192Z,1023.85
2018-02-21T09:58:40.177Z,1023.89
2018-02-21T09:59:40.228Z,1023.86
2018-02-21T10:00:40.189Z,1023.88
2018-02-21T10:01:40.174Z,1023.89
2018-02-21T10:02:40.274Z,1023.89
2018-02-21T10:03:40.178Z,1023.94
2018-02-21T10:04:40.205Z,1023.88
2018-02-21T10:05:40.177Z,1023.91
2018-02-21T10:06:40.189Z,1023.89
2018-02-21T10:07:40.194Z,1023.89
2018-02-21T10:08:40.180Z,1023.91
2018-02-21T10:09:40.204Z,1023.91
2018-02-21T10:10:40.286Z,1023.89
2018-02-21T10:11:40.182Z,1023.92
2018-02-21T10:12:40.165Z,1023.91
2018-02-21T10:13:40.189Z,1023.89
2018-02-21T10:14:40.184Z,1023.93
2018-02-21T10:15:40.191Z,1023.92
2018-02-21T10:16:40.175Z,1023.94
2018-02-21T10:17:40.185Z,1023.94
2018-02-21T10:18:40.268Z,1023.95
2018-02-21T10:19:40.210Z,1023.91
2018-02-21T10:20:40.181Z,1023.85
2018-02-21T10:21:40.179Z,1023.88
2018-02-21T10:22:40.185Z,1023.84
2018-02-21T10:23:40.179Z,1023.82
2018-02-21T10:24:40.256Z,1023.83
2018-02-21T10:25:40.175Z,1023.83
2018-02-21T10:26:40.315Z,1023.81
2018-02-21T10:27:40.166Z,1023.82
2018-02-21T10:28:40.213Z,1023.82
2018-02-21T10:29:40.188Z,1023.73
2018-02-21T10:30:40.224Z,1023.8
2018-02-21T10:31:40.175Z,1023.78
2018-02-21T10:32:40.179Z,1023.79
2018-02-21T10:33:40.171Z,1023.77
2018-02-21T10:34:40.163Z,1023.77
2018-02-21T10:35:40.178Z,1023.8
2018-02-21T10:36:40.167Z,1023.77
2018-02-21T10:37:40.186Z,1023.75
2018-02-21T10:38:40.168Z,1023.7
2018-02-21T10:39:40.183Z,1023.69
2018-02-21T10:40:40.165Z,1023.64
2018-02-21T10:41:40.172Z,1023.65
2018-02-21T10:42:40.168Z,1023.63
2018-02-21T10:43:40.184Z,1023.61
2018-02-21T10:44:40.175Z,1023.59
2018-02-21T10:45:40.173Z,1023.61
2018-02-21T10:46:40.182Z,1023.59
2018-02-21T10:47:40.187Z,1023.61
2018-02-21T10:48:40.219Z,1023.57
2018-02-21T10:49:40.166Z,1023.57
2018-02-21T10:50:40.268Z,1023.56
2018-02-21T10:51:40.165Z,1023.55
2018-02-21T10:52:40.178Z,1023.53
2018-02-21T10:53:40.167Z,1023.55
2018-02-21T10:54:40.176Z,1023.51
2018-02-21T10:55:40.170Z,1023.52
2018-02-21T10:56:40.168Z,1023.5
2018-02-21T10:57:40.157Z,1023.49
2018-02-21T10:58:40.178Z,1023.48
2018-02-21T10:59:40.173Z,1023.48
2018-02-21T11:00:40.164Z,1023.46
2018-02-21T11:01:40.150Z,1023.41
2018-02-21T11:02:40.221Z,1023.41
2018-02-21T11:03:40.160Z,1023.4
2018-02-21T11:04:40.153Z,1023.41
2018-02-21T11:05:40.159Z,1023.39
2018-02-21T11:06:40.148Z,1023.36
2018-02-21T11:07:40.157Z,1023.37
2018-02-21T11:08:40.159Z,1023.37
2018-02-21T11:09:40.168Z,1023.35
2018-02-21T11:10:40.156Z,1023.33
2018-02-21T11:11:40.167Z,1023.34
2018-02-21T11:12:40.157Z,1023.27
2018-02-21T11:13:40.215Z,1023.29
2018-02-21T11:14:40.156Z,1023.28
2018-02-21T11:15:40.161Z,1023.26
2018-02-21T11:16:40.158Z,1023.25
2018-02-21T11:17:40.155Z,1023.27
2018-02-21T11:18:40.168Z,1023.23
2018-02-21T11:19:40.145Z,1023.25
2018-02-21T11:20:40.155Z,1023.2
2018-02-21T11:21:40.157Z,1023.21
2018-02-21T11:22:40.160Z,1023.23
2018-02-21T11:23:40.425Z,1023.25
2018-02-21T11:24:40.155Z,1023.23
2018-02-21T11:25:40.148Z,1023.25
2018-02-21T11:26:40.166Z,1023.27
2018-02-21T11:27:40.161Z,1023.29
2018-02-21T11:28:40.148Z,1023.32
2018-02-21T11:29:40.153Z,1023.32
2018-02-21T11:30:40.156Z,1023.34
2018-02-21T11:31:40.189Z,1023.33
2018-02-21T11:32:40.137Z,1023.35
2018-02-21T11:33:40.143Z,1023.37
2018-02-21T11:34:40.151Z,1023.34
2018-02-21T11:35:40.144Z,1023.33
2018-02-21T11:36:40.167Z,1023.37
2018-02-21T11:37:40.149Z,1023.3
2018-02-21T11:38:40.148Z,1023.3
2018-02-21T11:39:40.153Z,1023.26
2018-02-21T11:40:40.135Z,1023.22
2018-02-21T11:41:40.146Z,1023.25
2018-02-21T11:42:40.149Z,1023.17
2018-02-21T11:43:40.144Z,1023.16
2018-02-21T11:44:40.152Z,1023.17
2018-02-21T11:45:40.146Z,1023.11
2018-02-21T11:46:40.167Z,1023.1
2018-02-21T11:47:40.148Z,1023.09
2018-02-21T11:48:40.150Z,1023.09
2018-02-21T11:49:40.142Z,1023.1
2018-02-21T11:50:40.153Z,1023.08
2018-02-21T11:51:40.184Z,1023.07
2018-02-21T11:52:40.134Z,1023.08
2018-02-21T11:53:40.140Z,1023.09
2018-02-21T11:54:40.139Z,1023.05
2018-02-21T11:55:40.156Z,1023.06
2018-02-21T11:56:40.151Z,1023.09
2018-02-21T11:57:40.305Z,1023.09
2018-02-21T11:58:40.148Z,1023.06
2018-02-21T11:59:40.138Z,1023.04
2018-02-21T12:00:40.144Z,1023.01
2018-02-21T12:01:40.166Z,1023
2018-02-21T12:02:40.273Z,1023.01
2018-02-21T12:03:40.143Z,1023.03
2018-02-21T12:04:40.170Z,1022.98
2018-02-21T12:05:40.142Z,1022.98
2018-02-21T12:06:40.153Z,1022.97
2018-02-21T12:07:40.126Z,1022.94
2018-02-21T12:08:40.125Z,1022.91